createdAt,value
2018-04-25T00:01:51.223Z,5.60
2018-04-25T00:04:23.465Z,4.67
2018-04-25T00:07:00.998Z,4.07
2018-04-25T00:09:35.298Z,4.63
2018-04-25T00:12:09.194Z,5.60
2018-04-25T00:14:43.443Z,5.73
2018-04-25T00:17:18.589Z,4.37
2018-04-25T00:19:54.134Z,7.73
2018-04-25T00:22:28.813Z,5.27
2018-04-25T00:25:05.975Z,6.07
2018-04-25T00:27:41.908Z,5.47
2018-04-25T00:30:11.728Z,4.57
2018-04-25T00:32:48.720Z,5.40
2018-04-25T00:35:23.379Z,4.30
2018-04-25T00:37:54.832Z,5.40
2018-04-25T00:40:22.429Z,5.00
2018-04-25T00:42:49.955Z,5.10
2018-04-25T00:45:18.032Z,5.23
2018-04-25T00:47:49.380Z,5.23
2018-04-25T00:50:21.069Z,7.33
2018-04-25T00:52:50.256Z,4.97
2018-04-25T00:55:18.694Z,4.60
2018-04-25T00:57:47.392Z,4.57
2018-04-25T01:00:16.138Z,5.20
2018-04-25T01:02:44.189Z,6.10
2018-04-25T01:05:11.782Z,6.60
2018-04-25T01:07:39.362Z,4.37
2018-04-25T01:10:06.928Z,6.43
2018-04-25T01:12:36.176Z,5.70
2018-04-25T01:15:10.368Z,4.57
2018-04-25T01:17:40.291Z,4.67
2018-04-25T01:20:07.863Z,5.60
2018-04-25T01:22:35.497Z,4.57
2018-04-25T01:25:03.056Z,3.77
2018-04-25T01:27:38.848Z,4.53
2018-04-25T01:30:07.309Z,3.97
2018-04-25T01:32:49.616Z,4.77
2018-04-25T01:35:18.637Z,4.30
2018-04-25T01:37:56.982Z,4.30
2018-04-25T01:40:28.845Z,5.17
2018-04-25T01:46:10.403Z,4.07
2018-04-25T01:49:10.352Z,4.63
2018-04-25T01:51:53.443Z,3.80
2018-04-25T01:54:36.739Z,3.37
2018-04-25T01:57:16.899Z,4.03
2018-04-25T02:00:01.377Z,5.37
2018-04-25T02:02:31.373Z,4.00
2018-04-25T02:04:59.965Z,5.30
2018-04-25T02:07:27.595Z,3.77
2018-04-25T02:09:55.354Z,3.77
2018-04-25T02:12:23.385Z,3.30
2018-04-25T02:14:51.753Z,4.87
2018-04-25T02:17:19.350Z,3.20
2018-04-25T02:19:47.018Z,3.40
2018-04-25T02:22:17.593Z,4.63
2018-04-25T02:24:48.735Z,3.47
2018-04-25T02:27:16.617Z,3.80
2018-04-25T02:29:44.198Z,3.60
2018-04-25T02:32:12.182Z,4.10
2018-04-25T02:34:40.006Z,4.40
2018-04-25T02:37:13.538Z,5.20
2018-04-25T02:39:43.839Z,5.47
2018-04-25T02:42:11.450Z,4.70
2018-04-25T02:44:40.029Z,5.47
2018-04-25T02:47:08.595Z,5.13
2018-04-25T02:49:54.343Z,6.63
2018-04-25T02:52:23.233Z,5.23
2018-04-25T02:54:51.614Z,6.63
2018-04-25T02:57:26.513Z,7.80
2018-04-25T02:59:58.539Z,5.93
2018-04-25T03:02:33.470Z,6.30
2018-04-25T03:05:06.743Z,6.83
2018-04-25T03:07:41.991Z,6.17
2018-04-25T03:10:15.773Z,6.73
2018-04-25T03:12:50.305Z,6.93
2018-04-25T03:15:19.888Z,7.27
2018-04-25T03:17:47.469Z,6.93
2018-04-25T03:20:15.050Z,7.30
2018-04-25T03:22:42.592Z,7.60
2018-04-25T03:25:15.089Z,8.67
2018-04-25T03:27:50.044Z,7.80
2018-04-25T03:30:25.546Z,6.87
2018-04-25T03:32:55.607Z,6.33
2018-04-25T03:35:31.808Z,6.33
2018-04-25T03:38:04.992Z,7.80
2018-04-25T03:40:38.318Z,7.40
2018-04-25T03:43:07.041Z,6.93
2018-04-25T03:45:34.673Z,7.60
2018-04-25T03:48:02.848Z,6.90
2018-04-25T03:50:33.686Z,6.33
2018-04-25T03:53:01.674Z,7.63
2018-04-25T03:55:29.205Z,6.73
2018-04-25T03:57:58.033Z,6.27
2018-04-25T04:00:26.675Z,6.17
2018-04-25T04:02:56.668Z,6.63
2018-04-25T04:05:34.858Z,6.60
2018-04-25T04:08:06.669Z,7.03
2018-04-25T04:10:37.671Z,7.10
2018-04-25T04:13:05.377Z,6.70
2018-04-25T04:15:34.282Z,8.67
2018-04-25T04:18:01.838Z,8.23
2018-04-25T04:20:32.948Z,8.67
2018-04-25T04:23:07.853Z,9.60
2018-04-25T04:25:41.051Z,8.07
2018-04-25T04:28:08.922Z,8.43
2018-04-25T04:30:36.804Z,8.70
2018-04-25T04:33:04.357Z,8.87
2018-04-25T04:35:32.809Z,8.53
2018-04-25T04:38:04.967Z,10.37
2018-04-25T04:40:33.193Z,9.37
2018-04-25T04:43:01.816Z,9.10
2018-04-25T04:45:29.399Z,9.23
2018-04-25T04:47:56.988Z,9.00
2018-04-25T04:50:25.607Z,9.23
2018-04-25T04:53:16.522Z,8.93
2018-04-25T04:55:44.069Z,9.03
2018-04-25T04:58:15.813Z,8.23
2018-04-25T05:00:49.423Z,8.17
2018-04-25T05:03:19.708Z,9.47
2018-04-25T05:05:54.184Z,8.73
2018-04-25T05:08:23.839Z,9.37
2018-04-25T05:10:51.630Z,8.03
2018-04-25T05:13:20.124Z,8.40
2018-04-25T05:15:47.953Z,10.53
2018-04-25T05:18:18.526Z,8.77
2018-04-25T05:20:54.562Z,9.30
2018-04-25T05:23:34.969Z,8.40
2018-04-25T05:26:04.921Z,9.03
2018-04-25T05:28:38.494Z,8.70
2018-04-25T05:31:12.457Z,10.30
2018-04-25T05:33:44.242Z,8.40
2018-04-25T05:36:18.635Z,6.60
2018-04-25T05:38:47.260Z,6.73
2018-04-25T05:41:17.116Z,8.43
2018-04-25T05:43:44.747Z,8.33
2018-04-25T05:46:13.087Z,7.10
2018-04-25T05:48:43.250Z,6.73
2018-04-25T05:51:17.655Z,8.33
2018-04-25T05:53:54.755Z,6.87
2018-04-25T05:56:28.855Z,7.10
2018-04-25T05:59:06.177Z,7.40
2018-04-25T06:01:39.685Z,6.07
2018-04-25T06:04:08.654Z,5.87
2018-04-25T06:06:36.784Z,6.10
2018-04-25T06:09:25.796Z,5.50
2018-04-25T06:11:58.927Z,8.20
2018-04-25T06:14:35.637Z,6.77
2018-04-25T06:17:11.339Z,6.67
2018-04-25T06:19:40.687Z,6.27
2018-04-25T06:22:08.262Z,5.43
2018-04-25T06:24:36.675Z,5.63
2018-04-25T06:27:05.319Z,6.10
2018-04-25T06:29:34.828Z,5.77
2018-04-25T06:32:06.991Z,6.13
2018-04-25T06:34:40.371Z,6.23
2018-04-25T06:37:15.469Z,5.27
2018-04-25T06:39:46.182Z,5.50
2018-04-25T06:42:13.747Z,6.37
2018-04-25T06:44:41.361Z,7.37
2018-04-25T06:47:08.886Z,5.60
2018-04-25T06:49:36.810Z,7.43
2018-04-25T06:52:04.370Z,5.60
2018-04-25T06:54:32.238Z,5.53
2018-04-25T06:57:00.130Z,5.67
2018-04-25T06:59:30.421Z,6.23
2018-04-25T07:02:00.895Z,8.93
2018-04-25T07:04:28.642Z,5.47
2018-04-25T07:06:56.553Z,5.37
2018-04-25T07:09:43.200Z,5.97
2018-04-25T07:12:12.927Z,7.93
2018-04-25T07:14:40.479Z,8.80
2018-04-25T07:17:08.732Z,6.23
2018-04-25T07:19:39.393Z,6.20
2018-04-25T07:22:11.962Z,7.17
2018-04-25T07:24:46.661Z,6.90
2018-04-25T07:27:23.210Z,7.23
2018-04-25T07:29:57.718Z,6.10
2018-04-25T07:32:37.292Z,5.93
2018-04-25T07:35:11.951Z,6.53
2018-04-25T07:37:44.601Z,7.20
2018-04-25T07:40:19.615Z,5.70
2018-04-25T07:42:51.267Z,6.80
2018-04-25T07:45:19.424Z,5.90
2018-04-25T07:47:47.001Z,5.70
2018-04-25T07:50:15.894Z,6.00
2018-04-25T07:52:44.825Z,6.17
2018-04-25T07:55:18.032Z,4.77
2018-04-25T07:57:46.987Z,6.47
2018-04-25T08:00:16.356Z,5.03
2018-04-25T08:02:45.259Z,5.87
2018-04-25T08:05:14.153Z,5.63
2018-04-25T08:07:43.996Z,4.67
2018-04-25T08:10:13.908Z,5.73
2018-04-25T08:12:50.198Z,6.00
2018-04-25T08:15:25.417Z,6.77
2018-04-25T08:18:03.313Z,7.90
2018-04-25T08:20:40.418Z,5.53
2018-04-25T08:23:10.345Z,3.93
2018-04-25T08:25:42.393Z,5.27
2018-04-25T08:28:14.515Z,5.77
2018-04-25T08:30:46.716Z,7.67
2018-04-25T08:33:16.918Z,8.00
2018-04-25T08:35:46.510Z,4.43
2018-04-25T08:38:15.872Z,4.43
2018-04-25T08:40:44.966Z,6.47
2018-04-25T08:43:15.219Z,6.23
2018-04-25T08:45:44.182Z,7.67
2018-04-25T08:48:13.657Z,4.47
2018-04-25T10:10:05.731Z,5.10
2018-04-25T10:12:58.391Z,2.60
2018-04-25T10:15:54.477Z,3.20
2018-04-25T10:28:06.478Z,2.90
2018-04-25T10:30:57.915Z,3.67
2018-04-25T10:33:53.889Z,5.87
2018-04-25T10:36:50.297Z,3.97
2018-04-25T10:39:45.897Z,2.70
2018-04-25T10:42:39.026Z,4.33
2018-04-25T10:45:35.176Z,4.10
2018-04-25T10:48:27.921Z,3.47
2018-04-25T10:51:19.894Z,5.40
2018-04-25T10:54:11.724Z,5.90
2018-04-25T10:57:04.535Z,6.93
2018-04-25T11:00:02.174Z,5.07
2018-04-25T11:02:56.377Z,6.20
2018-04-25T11:05:49.094Z,7.30
2018-04-25T11:08:47.021Z,4.30
2018-04-25T11:11:40.785Z,3.47
2018-04-25T11:14:37.466Z,4.53
2018-04-25T11:17:32.151Z,3.80
2018-04-25T11:20:25.351Z,5.07
2018-04-25T11:23:17.179Z,4.27
2018-04-25T11:26:09.236Z,4.37
2018-04-25T11:29:04.074Z,3.43
2018-04-25T11:31:57.913Z,3.97
2018-04-25T11:34:53.890Z,3.65
2018-04-25T11:37:51.130Z,4.30
2018-04-25T11:40:42.926Z,3.77
2018-04-25T11:43:36.560Z,5.63
2018-04-25T11:46:35.103Z,2.67
2018-04-25T11:49:33.237Z,4.57
2018-04-25T11:52:44.956Z,5.40
2018-04-25T11:55:49.321Z,4.20
2018-04-25T11:58:54.352Z,6.30
2018-04-25T12:01:53.858Z,6.93
2018-04-25T12:04:58.221Z,5.93
2018-04-25T12:08:00.361Z,6.40
2018-04-25T12:11:04.627Z,4.77
2018-04-25T12:14:09.517Z,4.47
2018-04-25T12:17:10.777Z,4.37
2018-04-25T12:20:09.612Z,3.23
2018-04-25T12:23:07.614Z,5.80
2018-04-25T12:26:06.641Z,5.40
2018-04-25T12:29:07.772Z,5.23
2018-04-25T12:32:09.397Z,3.23
2018-04-25T12:35:09.725Z,5.67
2018-04-25T12:38:09.657Z,4.00
2018-04-25T12:41:09.287Z,4.50
2018-04-25T12:44:10.726Z,5.13
2018-04-25T12:47:08.524Z,2.27
2018-04-25T12:50:09.082Z,4.03
2018-04-25T12:53:07.436Z,2.67
2018-04-25T12:56:05.913Z,3.90
2018-04-25T12:59:05.204Z,5.27
2018-04-25T13:02:04.090Z,5.83
2018-04-25T13:05:04.228Z,3.40
2018-04-25T13:08:05.680Z,4.40
2018-04-25T13:11:04.265Z,2.03
2018-04-25T13:14:03.559Z,1.67
2018-04-25T13:17:02.732Z,1.97
2018-04-25T13:20:00.572Z,1.10
2018-04-25T13:23:05.941Z,3.27
2018-04-25T13:26:05.563Z,3.37
2018-04-25T13:29:06.374Z,2.73
2018-04-25T13:32:06.324Z,4.33
2018-04-25T13:35:08.134Z,3.90
2018-04-25T13:38:10.127Z,3.17
2018-04-25T13:41:10.233Z,1.87
2018-04-25T13:44:09.748Z,4.17
2018-04-25T13:47:11.470Z,2.87
2018-04-25T13:50:12.582Z,4.97
2018-04-25T13:53:16.783Z,2.77
2018-04-25T13:56:16.662Z,3.27
2018-04-25T13:59:15.110Z,3.80
2018-04-25T14:02:15.588Z,2.57
2018-04-25T14:05:18.873Z,3.47
2018-04-25T14:08:18.556Z,4.77
2018-04-25T14:11:29.865Z,3.60
2018-04-25T14:14:34.836Z,2.57
2018-04-25T14:17:41.557Z,1.70
2018-04-25T14:20:44.955Z,2.30
2018-04-25T14:26:59.275Z,3.53
2018-04-25T14:30:03.842Z,1.23
2018-04-25T14:33:06.388Z,1.37
2018-04-25T14:36:06.452Z,2.87
2018-04-25T14:39:14.747Z,2.00
2018-04-25T14:42:17.506Z,1.40
2018-04-25T14:45:25.362Z,2.73
2018-04-25T14:48:27.557Z,1.97
2018-04-25T14:51:31.367Z,0.93
2018-04-25T14:54:39.791Z,4.80
2018-04-25T14:57:42.468Z,2.83
2018-04-25T15:00:42.203Z,4.50
2018-04-25T15:03:47.557Z,3.07
2018-04-25T15:06:48.602Z,3.37
2018-04-25T15:09:52.693Z,4.80
2018-04-25T15:12:52.446Z,4.20
2018-04-25T15:15:56.817Z,4.17
2018-04-25T15:19:00.234Z,1.83
2018-04-25T15:22:04.010Z,1.20
2018-04-25T15:25:06.701Z,1.57
2018-04-25T15:28:09.508Z,1.63
2018-04-25T15:31:14.986Z,0.87
2018-04-25T15:34:18.152Z,1.33
2018-04-25T15:37:23.843Z,1.73
2018-04-25T15:40:28.986Z,1.43
2018-04-25T15:43:28.483Z,1.13
2018-04-25T15:46:40.796Z,1.93
2018-04-25T15:49:40.145Z,3.27
2018-04-25T15:52:43.891Z,4.13
2018-04-25T15:55:45.138Z,1.17
2018-04-25T15:58:45.365Z,3.00
2018-04-25T16:01:49.166Z,3.03
2018-04-25T16:04:50.148Z,3.73
2018-04-25T16:11:00.311Z,2.70
2018-04-25T16:14:00.199Z,2.97
2018-04-25T16:17:02.224Z,2.40
2018-04-25T16:20:07.162Z,3.17
2018-04-25T16:23:13.581Z,2.30
2018-04-25T16:26:24.037Z,2.47
2018-04-25T16:29:23.465Z,3.57
2018-04-25T16:32:23.122Z,3.37
2018-04-25T16:35:23.113Z,2.70
2018-04-25T16:38:28.101Z,2.60
2018-04-25T16:41:29.133Z,3.40
2018-04-25T16:44:30.211Z,4.63
2018-04-25T16:47:31.653Z,2.17
2018-04-25T16:50:38.379Z,2.37
2018-04-25T16:56:45.252Z,5.13
2018-04-25T16:59:43.075Z,2.83
2018-04-25T17:02:48.238Z,3.20
2018-04-25T17:05:48.578Z,4.57
2018-04-25T17:08:51.680Z,4.50
2018-04-25T17:11:53.336Z,5.40
2018-04-25T17:14:51.531Z,4.80
2018-04-25T17:17:50.421Z,3.67
2018-04-25T17:20:50.430Z,3.47
2018-04-25T17:23:53.741Z,3.10
2018-04-25T17:26:52.373Z,3.90
2018-04-25T17:29:59.166Z,3.07
2018-04-25T17:33:08.614Z,3.07
2018-04-25T17:36:12.696Z,4.03
2018-04-25T17:39:16.511Z,5.17
2018-04-25T17:42:19.623Z,4.17
2018-04-25T17:45:19.078Z,5.87
2018-04-25T17:48:18.686Z,4.97
2018-04-25T17:51:17.145Z,5.17
2018-04-25T17:54:15.928Z,5.43
2018-04-25T18:00:26.640Z,4.40
2018-04-25T18:03:29.931Z,5.20
2018-04-25T18:06:30.326Z,6.73
2018-04-25T18:09:28.687Z,2.73
2018-04-25T18:12:26.804Z,4.20
2018-04-25T18:15:25.808Z,4.70
2018-04-25T18:18:31.864Z,4.90
2018-04-25T18:21:35.208Z,3.80
2018-04-25T18:24:44.636Z,3.93
2018-04-25T18:27:47.745Z,3.93
2018-04-25T18:30:52.424Z,6.87
2018-04-25T18:33:58.717Z,3.13
2018-04-25T18:37:03.459Z,3.63
2018-04-25T18:40:13.839Z,7.03
2018-04-25T18:43:17.409Z,8.57
2018-04-25T18:46:20.928Z,9.23
2018-04-25T18:49:27.394Z,30.20
2018-04-25T18:52:33.270Z,9.07
2018-04-25T18:55:39.759Z,5.93
2018-04-25T18:58:40.727Z,6.93
2018-04-25T19:01:42.749Z,6.97
2018-04-25T19:04:45.019Z,4.73
2018-04-25T19:07:47.987Z,4.37
2018-04-25T19:10:47.327Z,7.97
2018-04-25T19:13:45.339Z,9.67
2018-04-25T19:16:55.785Z,11.87
2018-04-25T19:19:54.468Z,7.83
2018-04-25T19:23:02.647Z,6.57
2018-04-25T19:26:08.422Z,18.63
2018-04-25T19:29:15.197Z,7.53
2018-04-25T19:32:14.673Z,6.33
2018-04-25T19:35:26.168Z,4.87
2018-04-25T19:38:30.853Z,8.47
2018-04-25T19:44:42.503Z,6.77
2018-04-25T19:47:43.426Z,8.40
2018-04-25T19:50:43.667Z,6.03
2018-04-25T19:53:44.694Z,10.90
2018-04-25T19:56:42.721Z,6.13
2018-04-25T19:59:40.563Z,6.10
2018-04-25T20:02:39.646Z,6.10
2018-04-25T20:05:37.307Z,8.00
2018-04-25T20:08:37.177Z,11.90
2018-04-25T20:11:39.176Z,12.60
2018-04-25T20:14:42.627Z,12.53
2018-04-25T20:17:45.780Z,9.20
2018-04-25T20:20:52.870Z,5.10
2018-04-25T20:23:57.302Z,10.47
2018-04-25T20:26:56.358Z,14.90
2018-04-25T20:29:59.656Z,9.00
2018-04-25T20:33:00.671Z,11.40
2018-04-25T20:36:06.336Z,7.70
2018-04-25T20:39:05.167Z,12.07
2018-04-25T20:42:05.147Z,11.27
2018-04-25T20:45:10.645Z,9.47
2018-04-25T20:48:10.110Z,10.17
2018-04-25T20:51:10.088Z,6.70
2018-04-25T20:54:10.245Z,9.20
2018-04-25T20:57:09.402Z,7.03
2018-04-25T21:00:11.184Z,7.17
2018-04-25T21:03:12.662Z,6.97
2018-04-25T21:06:13.838Z,5.00
2018-04-25T21:09:20.924Z,5.70
2018-04-25T21:12:21.177Z,5.70
2018-04-25T21:15:20.545Z,6.50
2018-04-25T21:18:20.369Z,6.93
2018-04-25T21:21:20.145Z,7.57
2018-04-25T21:24:24.996Z,10.10
2018-04-25T21:27:27.006Z,6.07
2018-04-25T21:30:33.557Z,6.57
2018-04-25T21:33:36.766Z,11.27
2018-04-25T21:36:44.639Z,6.07
2018-04-25T21:39:51.271Z,5.40
2018-04-25T21:42:56.272Z,6.93
2018-04-25T21:46:01.021Z,6.17
2018-04-25T22:14:55.352Z,10.87
2018-04-25T22:17:56.144Z,12.47
2018-04-25T22:20:57.289Z,9.83
2018-04-25T22:23:58.501Z,9.87
2018-04-25T22:26:56.637Z,8.20
2018-04-25T22:29:56.273Z,7.70
2018-04-25T22:32:56.252Z,9.57
2018-04-25T22:35:57.328Z,7.33
2018-04-25T22:38:57.822Z,6.57
2018-04-25T22:41:59.393Z,8.33
2018-04-25T22:45:01.202Z,9.53
2018-04-25T22:48:00.706Z,10.97
2018-04-25T22:51:01.276Z,12.00
2018-04-25T22:53:59.565Z,8.47
2018-04-25T22:57:01.921Z,10.80
2018-04-25T23:00:01.650Z,8.60
2018-04-25T23:03:00.696Z,8.00
2018-04-25T23:06:01.203Z,10.57
2018-04-25T23:09:05.136Z,7.40
2018-04-25T23:12:05.755Z,9.20
2018-04-25T23:15:03.363Z,5.93
2018-04-25T23:21:13.508Z,7.97
2018-04-25T23:24:11.742Z,9.90
2018-04-25T23:27:12.488Z,10.23
2018-04-25T23:30:11.323Z,9.00
2018-04-25T23:33:10.572Z,9.57
2018-04-25T23:36:10.874Z,7.87
2018-04-25T23:39:12.868Z,8.77
2018-04-25T23:42:10.587Z,11.53
2018-04-25T23:45:11.744Z,7.60
2018-04-25T23:48:10.448Z,10.97
2018-04-25T23:51:08.559Z,9.67
2018-04-25T23:54:07.454Z,8.07
2018-04-25T23:57:06.177Z,11.40
